Arrowhead, Minnesota
Current Conditions -  °F | °C
As of 8:57 AM on Monday 22 Dec 2014 (Local Time) from KCOQ Reporting Station
Light Snow Light Snow  
Wind Chill: 30°   Ceiling: 200
Heat Index: 34°   Visibility: 0.5mi
Dew Point: 32°   Wind: 5mph
Humidity: 93%   Direction: 110°ESE
Pressure: 29.68"   Gusts: NA
Location:  46.8211°N, 92.6871°W
Report Text: KCOQ 221457Z AUTO 11004KT 1/2SM -SN OVC002 01/00 A2968 RMK AO2
Loading
Personal Weather Stations






























Interactive Weather Map New forecast layout! Learn more

10-Day Weather Forecast

Advertisements
Track Severe Weather on mobile